sensor_id;sensor_type;location;lat;lon;timestamp;P1;durP1;ratioP1;P2;durP2;ratioP2
10717;SDS011;13513;42.700;23.124;2023-12-28T00:00:25;6.17;;;2.87;;
10717;SDS011;13513;42.700;23.124;2023-12-28T00:02:52;5.43;;;2.83;;
10717;SDS011;13513;42.700;23.124;2023-12-28T00:05:20;5.10;;;3.00;;
10717;SDS011;13513;42.700;23.124;2023-12-28T00:07:47;5.50;;;3.10;;
10717;SDS011;13513;42.700;23.124;2023-12-28T00:10:16;8.87;;;3.13;;
10717;SDS011;13513;42.700;23.124;2023-12-28T00:12:44;4.10;;;2.50;;
10717;SDS011;13513;42.700;23.124;2023-12-28T00:15:11;5.47;;;2.70;;
10717;SDS011;13513;42.700;23.124;2023-12-28T00:17:39;4.30;;;3.00;;
10717;SDS011;13513;42.700;23.124;2023-12-28T00:20:06;4.73;;;3.30;;
10717;SDS011;13513;42.700;23.124;2023-12-28T00:22:34;7.23;;;3.40;;
10717;SDS011;13513;42.700;23.124;2023-12-28T00:25:04;5.80;;;3.60;;
10717;SDS011;13513;42.700;23.124;2023-12-28T00:27:32;8.20;;;3.87;;
10717;SDS011;13513;42.700;23.124;2023-12-28T00:30:01;6.03;;;3.20;;
10717;SDS011;13513;42.700;23.124;2023-12-28T00:32:28;5.63;;;3.47;;
10717;SDS011;13513;42.700;23.124;2023-12-28T00:34:56;6.37;;;3.50;;
10717;SDS011;13513;42.700;23.124;2023-12-28T00:37:23;8.83;;;4.57;;
10717;SDS011;13513;42.700;23.124;2023-12-28T00:39:51;6.37;;;4.10;;
10717;SDS011;13513;42.700;23.124;2023-12-28T00:42:18;9.63;;;5.40;;
10717;SDS011;13513;42.700;23.124;2023-12-28T00:44:46;7.37;;;5.00;;
10717;SDS011;13513;42.700;23.124;2023-12-28T00:47:13;9.07;;;4.40;;
10717;SDS011;13513;42.700;23.124;2023-12-28T00:49:40;8.90;;;4.80;;
10717;SDS011;13513;42.700;23.124;2023-12-28T00:52:08;6.20;;;3.73;;
10717;SDS011;13513;42.700;23.124;2023-12-28T00:54:36;4.27;;;2.77;;
10717;SDS011;13513;42.700;23.124;2023-12-28T00:57:03;6.53;;;4.23;;
10717;SDS011;13513;42.700;23.124;2023-12-28T00:59:31;7.03;;;4.27;;
10717;SDS011;13513;42.700;23.124;2023-12-28T01:01:59;9.43;;;4.23;;
10717;SDS011;13513;42.700;23.124;2023-12-28T01:04:26;8.43;;;5.17;;
10717;SDS011;13513;42.700;23.124;2023-12-28T01:06:53;10.77;;;6.73;;
10717;SDS011;13513;42.700;23.124;2023-12-28T01:09:21;10.23;;;6.00;;
10717;SDS011;13513;42.700;23.124;2023-12-28T01:11:48;12.30;;;6.67;;
10717;SDS011;13513;42.700;23.124;2023-12-28T01:14:16;14.80;;;8.87;;
10717;SDS011;13513;42.700;23.124;2023-12-28T01:16:43;12.03;;;8.63;;
10717;SDS011;13513;42.700;23.124;2023-12-28T01:19:11;14.33;;;9.40;;
10717;SDS011;13513;42.700;23.124;2023-12-28T01:21:38;15.57;;;9.73;;
10717;SDS011;13513;42.700;23.124;2023-12-28T01:24:06;12.63;;;8.90;;
10717;SDS011;13513;42.700;23.124;2023-12-28T01:26:33;17.10;;;9.40;;
10717;SDS011;13513;42.700;23.124;2023-12-28T01:29:01;15.13;;;9.10;;
10717;SDS011;13513;42.700;23.124;2023-12-28T01:31:29;17.50;;;9.37;;
10717;SDS011;13513;42.700;23.124;2023-12-28T01:33:56;16.13;;;8.73;;
10717;SDS011;13513;42.700;23.124;2023-12-28T01:36:24;11.87;;;7.70;;
10717;SDS011;13513;42.700;23.124;2023-12-28T01:38:52;9.87;;;6.20;;
10717;SDS011;13513;42.700;23.124;2023-12-28T01:41:19;9.40;;;5.87;;
10717;SDS011;13513;42.700;23.124;2023-12-28T01:43:47;10.47;;;6.30;;
10717;SDS011;13513;42.700;23.124;2023-12-28T01:46:20;9.23;;;5.00;;
10717;SDS011;13513;42.700;23.124;2023-12-28T01:48:45;5.90;;;4.40;;
10717;SDS011;13513;42.700;23.124;2023-12-28T01:51:15;8.47;;;5.63;;
10717;SDS011;13513;42.700;23.124;2023-12-28T01:53:43;14.03;;;6.43;;
10717;SDS011;13513;42.700;23.124;2023-12-28T01:56:14;25.90;;;10.27;;
10717;SDS011;13513;42.700;23.124;2023-12-28T01:58:43;10.83;;;5.43;;
10717;SDS011;13513;42.700;23.124;2023-12-28T02:01:12;10.03;;;4.47;;
10717;SDS011;13513;42.700;23.124;2023-12-28T02:03:40;10.40;;;4.87;;
10717;SDS011;13513;42.700;23.124;2023-12-28T02:06:08;9.77;;;5.40;;
10717;SDS011;13513;42.700;23.124;2023-12-28T02:08:35;10.83;;;5.00;;
10717;SDS011;13513;42.700;23.124;2023-12-28T02:11:03;10.10;;;5.10;;
10717;SDS011;13513;42.700;23.124;2023-12-28T02:13:30;10.90;;;4.87;;
10717;SDS011;13513;42.700;23.124;2023-12-28T02:16:10;12.40;;;5.07;;
10717;SDS011;13513;42.700;23.124;2023-12-28T02:18:44;14.43;;;5.13;;
10717;SDS011;13513;42.700;23.124;2023-12-28T02:21:14;10.03;;;5.47;;
10717;SDS011;13513;42.700;23.124;2023-12-28T02:23:49;9.23;;;4.60;;
10717;SDS011;13513;42.700;23.124;2023-12-28T02:26:17;8.70;;;4.17;;
10717;SDS011;13513;42.700;23.124;2023-12-28T02:28:44;11.93;;;6.90;;
10717;SDS011;13513;42.700;23.124;2023-12-28T02:31:14;18.67;;;9.23;;
10717;SDS011;13513;42.700;23.124;2023-12-28T02:33:53;14.00;;;6.60;;
10717;SDS011;13513;42.700;23.124;2023-12-28T02:36:18;9.73;;;5.87;;
10717;SDS011;13513;42.700;23.124;2023-12-28T02:38:47;11.10;;;7.67;;
10717;SDS011;13513;42.700;23.124;2023-12-28T02:41:18;12.40;;;7.17;;
10717;SDS011;13513;42.700;23.124;2023-12-28T02:43:46;17.07;;;8.07;;
10717;SDS011;13513;42.700;23.124;2023-12-28T02:46:14;16.40;;;9.30;;
10717;SDS011;13513;42.700;23.124;2023-12-28T02:48:42;15.23;;;8.87;;
10717;SDS011;13513;42.700;23.124;2023-12-28T02:51:10;16.80;;;9.87;;
10717;SDS011;13513;42.700;23.124;2023-12-28T02:53:37;14.93;;;9.30;;
10717;SDS011;13513;42.700;23.124;2023-12-28T02:56:05;15.23;;;8.40;;
10717;SDS011;13513;42.700;23.124;2023-12-28T02:58:33;12.30;;;8.20;;
10717;SDS011;13513;42.700;23.124;2023-12-28T03:01:00;17.20;;;8.20;;
10717;SDS011;13513;42.700;23.124;2023-12-28T03:03:28;11.93;;;7.13;;
10717;SDS011;13513;42.700;23.124;2023-12-28T03:05:55;13.30;;;7.70;;
10717;SDS011;13513;42.700;23.124;2023-12-28T03:08:23;11.93;;;7.80;;
10717;SDS011;13513;42.700;23.124;2023-12-28T03:10:50;15.43;;;7.33;;
10717;SDS011;13513;42.700;23.124;2023-12-28T03:13:18;14.00;;;8.13;;
10717;SDS011;13513;42.700;23.124;2023-12-28T03:15:45;12.37;;;8.97;;
10717;SDS011;13513;42.700;23.124;2023-12-28T03:18:13;14.17;;;10.63;;
10717;SDS011;13513;42.700;23.124;2023-12-28T03:20:40;19.87;;;11.27;;
10717;SDS011;13513;42.700;23.124;2023-12-28T03:23:08;16.90;;;10.93;;
10717;SDS011;13513;42.700;23.124;2023-12-28T03:25:38;17.00;;;10.33;;
10717;SDS011;13513;42.700;23.124;2023-12-28T03:28:05;12.43;;;8.37;;
10717;SDS011;13513;42.700;23.124;2023-12-28T03:30:32;13.17;;;8.73;;
10717;SDS011;13513;42.700;23.124;2023-12-28T03:33:00;14.73;;;9.00;;
10717;SDS011;13513;42.700;23.124;2023-12-28T03:35:28;29.77;;;15.57;;
10717;SDS011;13513;42.700;23.124;2023-12-28T03:37:56;12.27;;;8.37;;
10717;SDS011;13513;42.700;23.124;2023-12-28T03:40:23;13.60;;;9.50;;
10717;SDS011;13513;42.700;23.124;2023-12-28T03:42:50;14.70;;;10.13;;
10717;SDS011;13513;42.700;23.124;2023-12-28T03:45:18;13.80;;;9.40;;
10717;SDS011;13513;42.700;23.124;2023-12-28T03:47:45;15.30;;;10.43;;
10717;SDS011;13513;42.700;23.124;2023-12-28T03:50:13;18.10;;;11.07;;
10717;SDS011;13513;42.700;23.124;2023-12-28T03:52:41;21.60;;;12.10;;
10717;SDS011;13513;42.700;23.124;2023-12-28T03:55:08;16.80;;;10.73;;
10717;SDS011;13513;42.700;23.124;2023-12-28T03:57:36;21.07;;;11.87;;
10717;SDS011;13513;42.700;23.124;2023-12-28T04:00:04;21.00;;;12.10;;
10717;SDS011;13513;42.700;23.124;2023-12-28T04:02:33;24.97;;;12.83;;
10717;SDS011;13513;42.700;23.124;2023-12-28T04:05:00;20.27;;;11.70;;
10717;SDS011;13513;42.700;23.124;2023-12-28T04:07:28;19.83;;;13.00;;
10717;SDS011;13513;42.700;23.124;2023-12-28T04:09:55;31.63;;;16.33;;
10717;SDS011;13513;42.700;23.124;2023-12-28T04:12:24;31.10;;;17.53;;
10717;SDS011;13513;42.700;23.124;2023-12-28T04:14:53;52.47;;;25.23;;
10717;SDS011;13513;42.700;23.124;2023-12-28T04:17:20;49.00;;;25.43;;
10717;SDS011;13513;42.700;23.124;2023-12-28T04:19:48;41.53;;;19.03;;
10717;SDS011;13513;42.700;23.124;2023-12-28T04:22:15;35.47;;;18.43;;
10717;SDS011;13513;42.700;23.124;2023-12-28T04:24:42;28.03;;;15.37;;
10717;SDS011;13513;42.700;23.124;2023-12-28T04:27:10;37.23;;;16.40;;
10717;SDS011;13513;42.700;23.124;2023-12-28T04:29:38;30.57;;;16.00;;
10717;SDS011;13513;42.700;23.124;2023-12-28T04:32:05;34.00;;;15.83;;
10717;SDS011;13513;42.700;23.124;2023-12-28T04:34:33;33.27;;;18.33;;
10717;SDS011;13513;42.700;23.124;2023-12-28T04:37:02;24.13;;;14.87;;
10717;SDS011;13513;42.700;23.124;2023-12-28T04:39:29;29.07;;;16.43;;
10717;SDS011;13513;42.700;23.124;2023-12-28T04:41:56;24.93;;;14.57;;
10717;SDS011;13513;42.700;23.124;2023-12-28T04:44:24;30.90;;;17.40;;
10717;SDS011;13513;42.700;23.124;2023-12-28T04:46:51;34.17;;;17.57;;
10717;SDS011;13513;42.700;23.124;2023-12-28T04:49:19;34.00;;;19.27;;
10717;SDS011;13513;42.700;23.124;2023-12-28T04:51:47;28.80;;;18.13;;
10717;SDS011;13513;42.700;23.124;2023-12-28T04:54:14;26.20;;;15.50;;
10717;SDS011;13513;42.700;23.124;2023-12-28T04:56:41;24.00;;;12.90;;
10717;SDS011;13513;42.700;23.124;2023-12-28T04:59:09;21.97;;;11.73;;
10717;SDS011;13513;42.700;23.124;2023-12-28T05:01:42;21.13;;;12.17;;
10717;SDS011;13513;42.700;23.124;2023-12-28T05:04:10;22.60;;;13.10;;
10717;SDS011;13513;42.700;23.124;2023-12-28T05:06:38;31.47;;;16.73;;
10717;SDS011;13513;42.700;23.124;2023-12-28T05:09:06;22.23;;;12.50;;
10717;SDS011;13513;42.700;23.124;2023-12-28T05:11:33;24.00;;;13.00;;
10717;SDS011;13513;42.700;23.124;2023-12-28T05:14:01;20.30;;;11.67;;
10717;SDS011;13513;42.700;23.124;2023-12-28T05:16:28;18.67;;;11.37;;
10717;SDS011;13513;42.700;23.124;2023-12-28T05:18:56;17.27;;;11.63;;
10717;SDS011;13513;42.700;23.124;2023-12-28T05:21:23;21.17;;;10.63;;
10717;SDS011;13513;42.700;23.124;2023-12-28T05:23:50;16.20;;;10.17;;
10717;SDS011;13513;42.700;23.124;2023-12-28T05:26:18;14.67;;;9.60;;
10717;SDS011;13513;42.700;23.124;2023-12-28T05:28:45;16.53;;;9.63;;
10717;SDS011;13513;42.700;23.124;2023-12-28T05:31:13;16.43;;;9.77;;
10717;SDS011;13513;42.700;23.124;2023-12-28T05:33:40;20.30;;;10.57;;
10717;SDS011;13513;42.700;23.124;2023-12-28T05:36:07;17.03;;;10.33;;
10717;SDS011;13513;42.700;23.124;2023-12-28T05:38:35;15.50;;;9.40;;
10717;SDS011;13513;42.700;23.124;2023-12-28T05:41:03;16.53;;;9.27;;
10717;SDS011;13513;42.700;23.124;2023-12-28T05:43:30;18.87;;;9.30;;
10717;SDS011;13513;42.700;23.124;2023-12-28T05:45:58;18.07;;;9.73;;
10717;SDS011;13513;42.700;23.124;2023-12-28T05:48:25;23.50;;;12.30;;
10717;SDS011;13513;42.700;23.124;2023-12-28T05:50:53;23.77;;;11.03;;
10717;SDS011;13513;42.700;23.124;2023-12-28T05:53:20;18.33;;;10.57;;
10717;SDS011;13513;42.700;23.124;2023-12-28T05:55:48;18.47;;;10.17;;
10717;SDS011;13513;42.700;23.124;2023-12-28T05:58:15;17.03;;;10.17;;
10717;SDS011;13513;42.700;23.124;2023-12-28T06:00:43;14.70;;;8.93;;
10717;SDS011;13513;42.700;23.124;2023-12-28T06:03:12;16.47;;;10.20;;
10717;SDS011;13513;42.700;23.124;2023-12-28T06:05:40;14.70;;;8.90;;
10717;SDS011;13513;42.700;23.124;2023-12-28T06:08:07;14.03;;;9.37;;
10717;SDS011;13513;42.700;23.124;2023-12-28T06:10:36;14.20;;;8.50;;
10717;SDS011;13513;42.700;23.124;2023-12-28T06:13:04;11.87;;;8.10;;
10717;SDS011;13513;42.700;23.124;2023-12-28T06:15:32;13.73;;;8.60;;
10717;SDS011;13513;42.700;23.124;2023-12-28T06:17:59;15.97;;;8.67;;
10717;SDS011;13513;42.700;23.124;2023-12-28T06:20:27;13.93;;;9.10;;
10717;SDS011;13513;42.700;23.124;2023-12-28T06:22:54;13.93;;;9.10;;
10717;SDS011;13513;42.700;23.124;2023-12-28T06:25:22;14.33;;;9.97;;
10717;SDS011;13513;42.700;23.124;2023-12-28T06:27:49;14.87;;;9.23;;
10717;SDS011;13513;42.700;23.124;2023-12-28T06:30:17;16.13;;;9.07;;
10717;SDS011;13513;42.700;23.124;2023-12-28T06:32:45;13.63;;;9.00;;
10717;SDS011;13513;42.700;23.124;2023-12-28T06:35:12;17.50;;;8.87;;
10717;SDS011;13513;42.700;23.124;2023-12-28T06:37:41;13.50;;;9.17;;
10717;SDS011;13513;42.700;23.124;2023-12-28T06:40:09;14.83;;;9.83;;
10717;SDS011;13513;42.700;23.124;2023-12-28T06:42:37;13.70;;;8.97;;
10717;SDS011;13513;42.700;23.124;2023-12-28T06:45:06;14.10;;;8.93;;
10717;SDS011;13513;42.700;23.124;2023-12-28T06:47:34;14.80;;;9.40;;
10717;SDS011;13513;42.700;23.124;2023-12-28T06:50:02;20.23;;;11.23;;
10717;SDS011;13513;42.700;23.124;2023-12-28T06:52:30;23.80;;;13.57;;
10717;SDS011;13513;42.700;23.124;2023-12-28T06:54:58;21.27;;;13.53;;
10717;SDS011;13513;42.700;23.124;2023-12-28T06:57:26;17.13;;;10.77;;
10717;SDS011;13513;42.700;23.124;2023-12-28T06:59:53;28.87;;;16.53;;
10717;SDS011;13513;42.700;23.124;2023-12-28T07:02:21;26.03;;;15.80;;
10717;SDS011;13513;42.700;23.124;2023-12-28T07:04:49;20.80;;;14.13;;
10717;SDS011;13513;42.700;23.124;2023-12-28T07:07:17;17.53;;;10.57;;
10717;SDS011;13513;42.700;23.124;2023-12-28T07:09:44;14.63;;;8.90;;
10717;SDS011;13513;42.700;23.124;2023-12-28T07:12:11;10.70;;;7.90;;
10717;SDS011;13513;42.700;23.124;2023-12-28T07:14:39;17.75;;;10.32;;
10717;SDS011;13513;42.700;23.124;2023-12-28T07:17:06;16.90;;;10.93;;
10717;SDS011;13513;42.700;23.124;2023-12-28T07:19:35;13.70;;;8.03;;
10717;SDS011;13513;42.700;23.124;2023-12-28T07:22:03;13.00;;;8.95;;
10717;SDS011;13513;42.700;23.124;2023-12-28T07:24:30;12.00;;;8.10;;
10717;SDS011;13513;42.700;23.124;2023-12-28T07:26:58;11.53;;;7.08;;
10717;SDS011;13513;42.700;23.124;2023-12-28T07:29:25;10.32;;;7.62;;
10717;SDS011;13513;42.700;23.124;2023-12-28T07:31:53;10.18;;;7.35;;
10717;SDS011;13513;42.700;23.124;2023-12-28T07:34:21;10.32;;;6.80;;
10717;SDS011;13513;42.700;23.124;2023-12-28T07:36:48;12.80;;;6.92;;
10717;SDS011;13513;42.700;23.124;2023-12-28T07:39:16;8.40;;;6.90;;
10717;SDS011;13513;42.700;23.124;2023-12-28T07:41:44;13.83;;;9.23;;
10717;SDS011;13513;42.700;23.124;2023-12-28T07:44:11;11.48;;;9.15;;
10717;SDS011;13513;42.700;23.124;2023-12-28T07:46:39;13.93;;;8.95;;
10717;SDS011;13513;42.700;23.124;2023-12-28T07:49:06;15.78;;;10.08;;
10717;SDS011;13513;42.700;23.124;2023-12-28T07:51:34;17.37;;;12.80;;
10717;SDS011;13513;42.700;23.124;2023-12-28T07:54:01;23.87;;;15.70;;
10717;SDS011;13513;42.700;23.124;2023-12-28T07:56:29;11.40;;;8.35;;
10717;SDS011;13513;42.700;23.124;2023-12-28T07:58:56;10.85;;;8.15;;
10717;SDS011;13513;42.700;23.124;2023-12-28T08:01:24;14.28;;;8.30;;
10717;SDS011;13513;42.700;23.124;2023-12-28T08:03:52;10.70;;;6.92;;
10717;SDS011;13513;42.700;23.124;2023-12-28T08:06:19;16.67;;;12.95;;
10717;SDS011;13513;42.700;23.124;2023-12-28T08:08:46;17.07;;;13.10;;
10717;SDS011;13513;42.700;23.124;2023-12-28T08:11:14;16.42;;;12.53;;
10717;SDS011;13513;42.700;23.124;2023-12-28T08:13:41;15.85;;;12.45;;
10717;SDS011;13513;42.700;23.124;2023-12-28T08:16:09;18.07;;;12.80;;
10717;SDS011;13513;42.700;23.124;2023-12-28T08:18:36;16.87;;;12.00;;
10717;SDS011;13513;42.700;23.124;2023-12-28T08:21:04;20.88;;;12.00;;
10717;SDS011;13513;42.700;23.124;2023-12-28T08:23:31;18.95;;;13.18;;
10717;SDS011;13513;42.700;23.124;2023-12-28T08:25:59;21.00;;;13.50;;
10717;SDS011;13513;42.700;23.124;2023-12-28T08:28:28;17.25;;;11.80;;
10717;SDS011;13513;42.700;23.124;2023-12-28T08:30:56;14.07;;;10.55;;
10717;SDS011;13513;42.700;23.124;2023-12-28T08:33:23;11.63;;;8.73;;
10717;SDS011;13513;42.700;23.124;2023-12-28T08:35:51;12.93;;;8.83;;
10717;SDS011;13513;42.700;23.124;2023-12-28T08:38:18;11.45;;;8.70;;
10717;SDS011;13513;42.700;23.124;2023-12-28T08:40:46;13.55;;;8.88;;
10717;SDS011;13513;42.700;23.124;2023-12-28T08:43:13;12.65;;;9.20;;
10717;SDS011;13513;42.700;23.124;2023-12-28T08:45:41;11.25;;;9.28;;
10717;SDS011;13513;42.700;23.124;2023-12-28T08:48:08;10.68;;;7.20;;
10717;SDS011;13513;42.700;23.124;2023-12-28T08:50:36;7.95;;;6.78;;
10717;SDS011;13513;42.700;23.124;2023-12-28T08:53:03;9.53;;;7.53;;
10717;SDS011;13513;42.700;23.124;2023-12-28T08:55:31;16.35;;;8.13;;
10717;SDS011;13513;42.700;23.124;2023-12-28T08:57:59;11.38;;;8.20;;
10717;SDS011;13513;42.700;23.124;2023-12-28T09:00:26;17.75;;;9.20;;
10717;SDS011;13513;42.700;23.124;2023-12-28T09:02:54;14.38;;;8.90;;
10717;SDS011;13513;42.700;23.124;2023-12-28T09:05:22;11.78;;;8.30;;
10717;SDS011;13513;42.700;23.124;2023-12-28T09:07:49;14.03;;;8.55;;
10717;SDS011;13513;42.700;23.124;2023-12-28T09:10:17;13.28;;;8.65;;
10717;SDS011;13513;42.700;23.124;2023-12-28T09:12:44;14.80;;;8.28;;
10717;SDS011;13513;42.700;23.124;2023-12-28T09:15:12;12.20;;;7.85;;
10717;SDS011;13513;42.700;23.124;2023-12-28T09:17:40;13.15;;;8.35;;
10717;SDS011;13513;42.700;23.124;2023-12-28T09:20:07;16.12;;;9.58;;
10717;SDS011;13513;42.700;23.124;2023-12-28T09:22:37;15.75;;;10.20;;
10717;SDS011;13513;42.700;23.124;2023-12-28T09:25:05;16.07;;;9.25;;
10717;SDS011;13513;42.700;23.124;2023-12-28T09:27:32;26.23;;;15.70;;
10717;SDS011;13513;42.700;23.124;2023-12-28T09:30:00;12.00;;;8.58;;
10717;SDS011;13513;42.700;23.124;2023-12-28T09:32:27;16.30;;;9.70;;
10717;SDS011;13513;42.700;23.124;2023-12-28T09:34:54;12.60;;;9.77;;
10717;SDS011;13513;42.700;23.124;2023-12-28T09:37:23;15.43;;;8.53;;
10717;SDS011;13513;42.700;23.124;2023-12-28T09:39:50;14.53;;;9.30;;
10717;SDS011;13513;42.700;23.124;2023-12-28T09:42:24;13.55;;;8.43;;
10717;SDS011;13513;42.700;23.124;2023-12-28T09:44:54;14.30;;;9.90;;
10717;SDS011;13513;42.700;23.124;2023-12-28T09:47:23;14.53;;;10.23;;
10717;SDS011;13513;42.700;23.124;2023-12-28T09:49:50;15.10;;;10.80;;
10717;SDS011;13513;42.700;23.124;2023-12-28T09:52:18;13.93;;;9.30;;
10717;SDS011;13513;42.700;23.124;2023-12-28T09:54:45;20.00;;;9.08;;
10717;SDS011;13513;42.700;23.124;2023-12-28T09:57:13;15.55;;;9.33;;
10717;SDS011;13513;42.700;23.124;2023-12-28T09:59:40;12.58;;;8.68;;
10717;SDS011;13513;42.700;23.124;2023-12-28T10:02:09;14.13;;;8.75;;
10717;SDS011;13513;42.700;23.124;2023-12-28T10:04:37;14.40;;;9.60;;
10717;SDS011;13513;42.700;23.124;2023-12-28T10:07:05;17.17;;;9.45;;
10717;SDS011;13513;42.700;23.124;2023-12-28T10:09:32;18.45;;;10.70;;
10717;SDS011;13513;42.700;23.124;2023-12-28T10:11:59;15.13;;;9.73;;
10717;SDS011;13513;42.700;23.124;2023-12-28T10:14:29;16.05;;;10.98;;
10717;SDS011;13513;42.700;23.124;2023-12-28T10:16:56;13.48;;;8.95;;
10717;SDS011;13513;42.700;23.124;2023-12-28T10:19:24;15.90;;;9.98;;
10717;SDS011;13513;42.700;23.124;2023-12-28T10:21:51;13.62;;;9.13;;
10717;SDS011;13513;42.700;23.124;2023-12-28T10:24:19;18.07;;;10.80;;
10717;SDS011;13513;42.700;23.124;2023-12-28T10:26:47;13.90;;;9.33;;
10717;SDS011;13513;42.700;23.124;2023-12-28T10:29:15;17.30;;;9.90;;
10717;SDS011;13513;42.700;23.124;2023-12-28T10:31:43;13.50;;;9.63;;
10717;SDS011;13513;42.700;23.124;2023-12-28T10:34:12;17.70;;;9.77;;
10717;SDS011;13513;42.700;23.124;2023-12-28T10:36:39;16.97;;;9.93;;
10717;SDS011;13513;42.700;23.124;2023-12-28T10:39:08;15.45;;;10.18;;
10717;SDS011;13513;42.700;23.124;2023-12-28T10:41:39;19.10;;;9.83;;
10717;SDS011;13513;42.700;23.124;2023-12-28T10:44:10;17.70;;;10.38;;
10717;SDS011;13513;42.700;23.124;2023-12-28T10:46:41;18.10;;;10.90;;
10717;SDS011;13513;42.700;23.124;2023-12-28T10:49:11;14.45;;;8.93;;
10717;SDS011;13513;42.700;23.124;2023-12-28T10:51:42;18.27;;;10.35;;
10717;SDS011;13513;42.700;23.124;2023-12-28T10:54:19;14.23;;;9.40;;
10717;SDS011;13513;42.700;23.124;2023-12-28T10:57:10;16.67;;;9.90;;
10717;SDS011;13513;42.700;23.124;2023-12-28T11:02:23;16.82;;;9.45;;
10717;SDS011;13513;42.700;23.124;2023-12-28T11:04:53;14.13;;;9.53;;
10717;SDS011;13513;42.700;23.124;2023-12-28T11:07:21;17.67;;;10.23;;
10717;SDS011;13513;42.700;23.124;2023-12-28T11:09:49;15.05;;;10.63;;
10717;SDS011;13513;42.700;23.124;2023-12-28T11:12:20;14.68;;;10.93;;
10717;SDS011;13513;42.700;23.124;2023-12-28T11:14:48;18.73;;;11.35;;
10717;SDS011;13513;42.700;23.124;2023-12-28T11:17:18;16.57;;;11.40;;
10717;SDS011;13513;42.700;23.124;2023-12-28T11:19:47;17.30;;;11.10;;
10717;SDS011;13513;42.700;23.124;2023-12-28T11:22:16;17.52;;;11.78;;
10717;SDS011;13513;42.700;23.124;2023-12-28T11:24:43;20.60;;;12.50;;
10717;SDS011;13513;42.700;23.124;2023-12-28T11:27:11;15.98;;;11.83;;
10717;SDS011;13513;42.700;23.124;2023-12-28T11:29:40;18.82;;;12.73;;
10717;SDS011;13513;42.700;23.124;2023-12-28T11:32:10;18.40;;;12.80;;
10717;SDS011;13513;42.700;23.124;2023-12-28T11:34:37;18.32;;;13.00;;
10717;SDS011;13513;42.700;23.124;2023-12-28T11:37:06;42.45;;;25.52;;
10717;SDS011;13513;42.700;23.124;2023-12-28T11:39:36;22.52;;;14.18;;
10717;SDS011;13513;42.700;23.124;2023-12-28T11:42:06;27.13;;;15.75;;
10717;SDS011;13513;42.700;23.124;2023-12-28T11:44:41;19.70;;;14.60;;
10717;SDS011;13513;42.700;23.124;2023-12-28T11:47:26;21.30;;;14.07;;
10717;SDS011;13513;42.700;23.124;2023-12-28T11:49:50;19.40;;;13.90;;
10717;SDS011;13513;42.700;23.124;2023-12-28T11:52:29;26.45;;;16.12;;
10717;SDS011;13513;42.700;23.124;2023-12-28T11:54:58;26.73;;;15.32;;
10717;SDS011;13513;42.700;23.124;2023-12-28T11:57:26;22.00;;;16.12;;
10717;SDS011;13513;42.700;23.124;2023-12-28T11:59:59;20.52;;;15.78;;
10717;SDS011;13513;42.700;23.124;2023-12-28T12:02:23;23.30;;;16.42;;
10717;SDS011;13513;42.700;23.124;2023-12-28T12:04:51;23.42;;;16.73;;
10717;SDS011;13513;42.700;23.124;2023-12-28T12:07:24;25.48;;;17.45;;
10717;SDS011;13513;42.700;23.124;2023-12-28T12:09:55;30.55;;;19.02;;
10717;SDS011;13513;42.700;23.124;2023-12-28T12:12:23;32.98;;;20.17;;
10717;SDS011;13513;42.700;23.124;2023-12-28T12:14:52;26.25;;;17.27;;
10717;SDS011;13513;42.700;23.124;2023-12-28T12:17:19;25.23;;;17.35;;
10717;SDS011;13513;42.700;23.124;2023-12-28T12:19:47;27.25;;;17.35;;
10717;SDS011;13513;42.700;23.124;2023-12-28T12:22:16;27.25;;;18.37;;
10717;SDS011;13513;42.700;23.124;2023-12-28T12:24:44;25.70;;;17.65;;
10717;SDS011;13513;42.700;23.124;2023-12-28T12:27:15;27.60;;;17.62;;
10717;SDS011;13513;42.700;23.124;2023-12-28T12:29:43;26.52;;;19.05;;
10717;SDS011;13513;42.700;23.124;2023-12-28T12:32:11;26.20;;;19.02;;
10717;SDS011;13513;42.700;23.124;2023-12-28T12:34:39;32.45;;;21.05;;
10717;SDS011;13513;42.700;23.124;2023-12-28T12:37:07;29.87;;;20.60;;
10717;SDS011;13513;42.700;23.124;2023-12-28T12:39:34;27.30;;;18.20;;
10717;SDS011;13513;42.700;23.124;2023-12-28T12:42:02;27.85;;;19.67;;
10717;SDS011;13513;42.700;23.124;2023-12-28T12:44:30;50.35;;;32.70;;
10717;SDS011;13513;42.700;23.124;2023-12-28T12:46:58;39.98;;;26.07;;
10717;SDS011;13513;42.700;23.124;2023-12-28T12:49:26;30.62;;;21.00;;
10717;SDS011;13513;42.700;23.124;2023-12-28T12:51:54;33.80;;;23.32;;
10717;SDS011;13513;42.700;23.124;2023-12-28T12:54:22;35.68;;;23.65;;
10717;SDS011;13513;42.700;23.124;2023-12-28T12:56:50;38.08;;;24.43;;
10717;SDS011;13513;42.700;23.124;2023-12-28T12:59:18;36.03;;;24.55;;
10717;SDS011;13513;42.700;23.124;2023-12-28T13:01:47;37.58;;;24.23;;
10717;SDS011;13513;42.700;23.124;2023-12-28T13:04:15;36.77;;;24.35;;
10717;SDS011;13513;42.700;23.124;2023-12-28T13:06:43;38.45;;;24.77;;
10717;SDS011;13513;42.700;23.124;2023-12-28T13:09:11;39.67;;;24.75;;
10717;SDS011;13513;42.700;23.124;2023-12-28T13:11:38;35.73;;;24.25;;
10717;SDS011;13513;42.700;23.124;2023-12-28T13:14:06;38.08;;;24.45;;
10717;SDS011;13513;42.700;23.124;2023-12-28T13:16:33;33.90;;;22.17;;
10717;SDS011;13513;42.700;23.124;2023-12-28T13:19:01;38.85;;;21.77;;
10717;SDS011;13513;42.700;23.124;2023-12-28T13:21:28;33.60;;;21.33;;
10717;SDS011;13513;42.700;23.124;2023-12-28T13:23:56;32.35;;;21.33;;
10717;SDS011;13513;42.700;23.124;2023-12-28T13:26:25;34.15;;;21.07;;
10717;SDS011;13513;42.700;23.124;2023-12-28T13:28:52;33.13;;;21.50;;
10717;SDS011;13513;42.700;23.124;2023-12-28T13:31:22;36.70;;;21.80;;
10717;SDS011;13513;42.700;23.124;2023-12-28T13:33:50;33.15;;;22.17;;
10717;SDS011;13513;42.700;23.124;2023-12-28T13:36:17;31.52;;;22.30;;
10717;SDS011;13513;42.700;23.124;2023-12-28T13:38:45;32.60;;;22.00;;
10717;SDS011;13513;42.700;23.124;2023-12-28T13:41:13;32.70;;;21.50;;
10717;SDS011;13513;42.700;23.124;2023-12-28T13:43:41;34.33;;;22.07;;
10717;SDS011;13513;42.700;23.124;2023-12-28T13:46:08;39.78;;;22.15;;
10717;SDS011;13513;42.700;23.124;2023-12-28T13:48:36;32.95;;;20.77;;
10717;SDS011;13513;42.700;23.124;2023-12-28T13:51:05;28.77;;;19.30;;
10717;SDS011;13513;42.700;23.124;2023-12-28T13:53:33;32.60;;;19.57;;
10717;SDS011;13513;42.700;23.124;2023-12-28T13:56:02;29.95;;;20.05;;
10717;SDS011;13513;42.700;23.124;2023-12-28T13:58:30;42.27;;;25.12;;
10717;SDS011;13513;42.700;23.124;2023-12-28T14:00:57;29.23;;;20.50;;
10717;SDS011;13513;42.700;23.124;2023-12-28T14:03:25;30.70;;;19.62;;
10717;SDS011;13513;42.700;23.124;2023-12-28T14:05:52;27.10;;;19.82;;
10717;SDS011;13513;42.700;23.124;2023-12-28T14:08:19;29.02;;;20.05;;
10717;SDS011;13513;42.700;23.124;2023-12-28T14:10:47;36.48;;;20.60;;
10717;SDS011;13513;42.700;23.124;2023-12-28T14:13:14;31.45;;;19.17;;
10717;SDS011;13513;42.700;23.124;2023-12-28T14:15:42;36.80;;;21.10;;
10717;SDS011;13513;42.700;23.124;2023-12-28T14:18:09;34.15;;;21.45;;
10717;SDS011;13513;42.700;23.124;2023-12-28T14:20:37;47.08;;;25.45;;
10717;SDS011;13513;42.700;23.124;2023-12-28T14:23:04;39.63;;;22.65;;